• Join FlightAware (Why Join?)
  • Login
  • US Flag 
02:58AM EDT


 

Airport Tracker/Info


-or-


 

Live Flight TrackerFlight Track Log ✈ ASQ5745 ✈ 22-May-2013 ✈ KIAD - KALB

Flight Track Log - Related Links

Times and Time Zones

All times are in EDT time to prevent confusion due to time zone crossing. See the ASQ5745 flight status page for this flight to view local times or setup timezone preferences in your user account.

Time Position Orientation Groundspeed Altitude Reporting Facility
EDT Latitude Longitude Course Direction KTS MPH feet Rate Location/Type
08:20AM 39.0181 -77.5714 North 218 251 4,500  Level Washington Center
08:21AM 39.0972 -77.5656 North 241 277 6,600 2,100 Climbing Washington Center
08:22AM 39.4012 -77.4500 North  Level FlightAware Approximate
08:22AM 39.1683 -77.5514 North 260 299 8,800  Level Washington Center
08:23AM 39.4948 -77.4500 North  Level FlightAware Approximate
08:23AM 39.2483 -77.5106 22° Northeast 296 341 10,900  Level Washington Center
08:24AM 39.5792 -77.4500 North  Level FlightAware Approximate
08:24AM 39.3386 -77.4619 23° Northeast 318 366 11,900  Level Washington Center
08:25AM 39.6636 -77.4500 North  Level FlightAware Approximate
08:25AM 39.4394 -77.4161 19° North 353 406 13,000  Level Washington Center
08:26AM 39.5433 -77.4350 352° North 365 420 14,900 1,860 Climbing Washington Center
08:27AM 39.6472 -77.4536 352° North 365 420 16,800 1,560 Climbing Washington Center
08:28AM 39.7825 -77.4519 North 367 422 18,400 1,260 Climbing New York Center
08:29AM 39.8908 -77.4514 360° North 380 437 19,600 1,260 Climbing New York Center
08:30AM 40.0017 -77.4483 North 385 443 21,000 1,440 Climbing New York Center
08:31AM 40.1100 -77.4481 360° North 385 443 22,500 1,440 Climbing New York Center
08:32AM 40.2042 -77.4053 19° North 385 443 23,900 1,200 Climbing New York Center
08:33AM 40.3011 -77.3492 24° Northeast 376 433 25,000 540 Climbing New York Center
08:34AM 40.3983 -77.2903 25° Northeast 376 433 25,000  Level New York Center
08:35AM 40.4978 -77.2233 27° Northeast 387 445 25,000  Level New York Center
08:36AM 40.5994 -77.1589 26° Northeast 399 459 25,000  Level New York Center
08:37AM 40.7008 -77.0944 26° Northeast 399 459 25,000  Level New York Center
08:38AM 40.8022 -77.0300 26° Northeast 399 459 25,000  Level New York Center
08:39AM 40.9058 -76.9625 26° Northeast 399 459 25,000  Level New York Center
08:40AM 41.0092 -76.8975 25° Northeast 399 459 25,000  Level New York Center
08:41AM 41.1125 -76.8297 26° Northeast 399 459 25,000  Level New York Center
08:42AM 41.2139 -76.7644 26° Northeast 399 459 25,000  Level New York Center
08:43AM 41.3192 -76.6992 25° Northeast 399 459 25,000  Level New York Center
08:44AM 41.4206 -76.6333 26° Northeast 399 459 25,000  Level New York Center
08:45AM 41.5239 -76.5647 26° Northeast 399 459 25,000  Level New York Center
08:46AM 41.6269 -76.4961 26° Northeast 399 459 25,000  Level New York Center
08:47AM 41.7239 -76.4294 27° Northeast 399 459 25,000 -120 Level New York Center
08:49AM 41.9347 -76.2889 26° Northeast 420 483 24,800 -240 Descending Boston Center
08:50AM 42.0350 -76.2197 27° Northeast 408 470 24,300 -420 Descending Boston Center
08:51AM 42.1353 -76.1528 26° Northeast 403 464 24,000 -180 Descending Boston Center
08:52AM 42.1978 -76.0303 55° Northeast 391 450 24,000  Level Boston Center
08:53AM 42.2436 -75.8900 66° East 387 445 24,000  Level Boston Center
08:54AM 42.2875 -75.7519 67° East 392 451 24,000 -240 Level Boston Center
08:55AM 42.2983 -75.5897 85° East 392 451 23,600 -780 Descending Boston Center
08:56AM 42.3089 -75.4331 85° East 397 457 22,500 -1,740 Descending Boston Center
08:57AM 42.3211 -75.2819 84° East 404 465 20,200 -2,280 Descending Boston Center
08:58AM 42.3289 -75.1333 86° East 404 465 18,000 -2,160 Descending Boston Center
08:59AM 42.3403 -74.9933 84° East 392 451 15,900 -1,860 Descending Boston Center
09:00AM 42.3497 -74.8561 85° East 379 436 14,300 -1,320 Descending Boston Center
09:01AM 42.3628 -74.7217 82° East 361 415 13,300 -960 Descending Boston Center
09:02AM 42.3906 -74.5822 75° East 351 404 12,300 -1,020 Descending Boston Center
09:03AM 42.4303 -74.4711 64° Northeast 358 412 11,300 -780 Descending Boston Center
09:04AM 42.4822 -74.3544 59° Northeast 363 418 10,900 -600 Descending Boston Center
09:05AM 42.5339 -74.2519 56° Northeast 338 389 10,100 -1,080 Descending Boston Center
09:06AM 42.6036 -74.1917 32° Northeast 301 346 8,800 -1,380 Descending Boston Center
09:07AM 42.7006 -74.1294 25° Northeast 293 337 7,100 -1,380 Descending Boston Center
09:08AM 42.7511 -74.0914 29° Northeast 290 334 6,100 -1,500 Descending Boston Center
09:08AM 42.7700 -74.0778 28° Northeast 283 326 5,600 -1,320 Descending Boston Center
09:09AM 42.8142 -74.0533 22° Northeast 279 321 4,800 -1,500 Descending Boston Center
09:09AM 42.8414 -74.0342 27° Northeast 274 315 4,100 -1,500 Descending Boston Center
09:10AM 42.8817 -73.9928 37° Northeast 274 315 3,300 -1,020 Descending Boston Center
09:10AM 42.8903 -73.9675 65° Northeast 261 300 3,100 -300 Descending Boston Center
09:11AM 42.9078 -73.9169 65° Northeast 241 277 3,000 -420 Descending Boston Center
09:11AM 42.9122 -73.8858 79° East 225 259 2,700 -900 Descending Boston Center
09:12AM 42.9067 -73.8261 97° East 215 247 2,100 -720 Descending Boston Center
09:12AM 42.8922 -73.8172 156° South 199 229 2,000  Descending Boston Center
09:13AM 42.8694 -73.8111 169° South 161 185 2,100 120 Climbing Boston Center